^^
Saratoga-Weather Station Historical Data
Daily Summary for July 20, 2020 Units:  English    Metric   Both
Daily Weekly Monthly Yearly Custom
  High: Low: Average:
Temperature: 69.8 °F 62.8 °F 66.4 °F
Dew Point: 51.6 °F 49.8 °F 50.9 °F
Humidity: 66% 50% 58%
Wind Speed: 4.9mph 0mph 0.7mph
Wind Gust: 5mph - -
Wind- - SW
Pressure: 30 in 29.9 in -
Precipitation: 0 in    
Historical Graphs
 
 
Tabular Data for July 20, 2020
Time Temperature Dew Point Pressure Wind Wind Speed Wind Gust Humidity Rainfall Rate (Hourly) solar
00:00 69.8 °F 50.4 °F 30 in SW 2 mph 2 mph 50% 0 in 0 W/m2
00:05 69.4 °F 50 °F 30 in SW 0.9 mph 2 mph 50% 0 in 0 W/m2
00:11 69.3 °F 49.8 °F 30 in SW 0.9 mph 3 mph 50% 0 in 0 W/m2
00:16 69.1 °F 50.2 °F 30 in WSW 4.9 mph 5 mph 51% 0 in 0 W/m2
00:21 69.1 °F 50.2 °F 30 in SW 2.9 mph 3 mph 51% 0 in 0 W/m2
00:26 69.3 °F 49.8 °F 30 in SW 2 mph 5 mph 50% 0 in 0 W/m2
00:31 69.4 °F 50 °F 30 in SW 0.9 mph 3 mph 50% 0 in 0 W/m2
00:36 69.6 °F 50.2 °F 30 in Calm   1 mph 50% 0 in 0 W/m2
00:41 69.6 °F 50.7 °F 30 in West 2 mph 3 mph 51% 0 in 0 W/m2
00:46 69.4 °F 50.5 °F 30 in Calm     51% 0 in 0 W/m2
00:51 69.1 °F 50.2 °F 30 in SSW 0.9 mph 3 mph 51% 0 in 0 W/m2
00:56 68.9 °F 50 °F 30 in Calm   1 mph 51% 0 in 0 W/m2
01:01 68.7 °F 50.9 °F 30 in SSW 0.9 mph 2 mph 53% 0 in 0 W/m2
01:06 68.5 °F 50.7 °F 30 in SSW 0.9 mph 2 mph 53% 0 in 0 W/m2
01:11 68.4 °F 50.5 °F 30 in SSW 2 mph 3 mph 53% 0 in 0 W/m2
01:16 68.4 °F 50.5 °F 30 in Calm   1 mph 53% 0 in 0 W/m2
01:21 68.2 °F 50.4 °F 30 in WSW 0.9 mph 2 mph 53% 0 in 0 W/m2
01:26 68.4 °F 50.5 °F 30 in WSW 0.9 mph 3 mph 53% 0 in 0 W/m2
01:31 68.4 °F 50.5 °F 30 in West 2.9 mph 4 mph 53% 0 in 0 W/m2
01:36 68.5 °F 50.7 °F 30 in WNW 0.9 mph 2 mph 53% 0 in 0 W/m2
01:41 68.5 °F 50.7 °F 30 in Calm   1 mph 53% 0 in 0 W/m2
01:46 68.4 °F 51.1 °F 30 in WSW 0.9 mph 1 mph 54% 0 in 0 W/m2
01:51 68.2 °F 51.4 °F 30 in WSW 2 mph 2 mph 55% 0 in 0 W/m2
01:56 68 °F 51.3 °F 30 in South 0.9 mph 2 mph 55% 0 in 0 W/m2
02:01 67.8 °F 51.1 °F 30 in SSW 0.9 mph 2 mph 55% 0 in 0 W/m2
02:06 67.8 °F 50.5 °F 30 in SSW 0.9 mph 2 mph 54% 0 in 0 W/m2
02:11 67.6 °F 50.4 °F 30 in WSW 2.9 mph 4 mph 54% 0 in 0 W/m2
02:16 68 °F 50.2 °F 30 in SW 0.9 mph 3 mph 53% 0 in 0 W/m2
02:21 68.2 °F 51.4 °F 30 in SW 2 mph 4 mph 55% 0 in 0 W/m2
02:26 68 °F 50.7 °F 30 in Calm   3 mph 54% 0 in 0 W/m2
02:31 67.8 °F 51.1 °F 30 in SW 0.9 mph 2 mph 55% 0 in 0 W/m2
02:36 67.5 °F 51.3 °F 30 in SW 0.9 mph 3 mph 56% 0 in 0 W/m2
02:41 67.1 °F 51.4 °F 30 in SW 0.9 mph 2 mph 57% 0 in 0 W/m2
02:47 66.7 °F 51.1 °F 30 in Calm   1 mph 57% 0 in 0 W/m2
02:52 66.6 °F 51.3 °F 29.9 in Calm   2 mph 58% 0 in 0 W/m2
02:57 66.2 °F 51.4 °F 29.9 in Calm     59% 0 in 0 W/m2
03:02 65.8 °F 51.1 °F 29.9 in Calm     59% 0 in 0 W/m2
03:07 65.5 °F 51.3 °F 29.9 in Calm     60% 0 in 0 W/m2
03:12 64.9 °F 51.1 °F 29.9 in Calm     61% 0 in 0 W/m2
03:17 64.6 °F 50.9 °F 29.9 in Calm     61% 0 in 0 W/m2
03:22 64.2 °F 50.9 °F 29.9 in Calm   2 mph 62% 0 in 0 W/m2
03:27 63.9 °F 51.1 °F 29.9 in Calm     63% 0 in 0 W/m2
03:32 63.7 °F 50.9 °F 29.9 in SW 0.9 mph 1 mph 63% 0 in 0 W/m2
03:37 63.3 °F 51.4 °F 29.9 in SW 0.9 mph 1 mph 65% 0 in 0 W/m2
03:42 63.1 °F 51.3 °F 29.9 in Calm   1 mph 65% 0 in 0 W/m2
03:47 63.1 °F 51.3 °F 29.9 in SW 0.9 mph 1 mph 65% 0 in 0 W/m2
03:52 63 °F 51.1 °F 29.9 in Calm     65% 0 in 0 W/m2
03:57 62.8 °F 51.3 °F 29.9 in Calm     66% 0 in 0 W/m2
04:02 62.8 °F 51.3 °F 29.9 in Calm     66% 0 in 0 W/m2
04:07 63 °F 51.1 °F 29.9 in SW 2 mph 2 mph 65% 0 in 0 W/m2
04:12 63.5 °F 51.1 °F 29.9 in Calm   1 mph 64% 0 in 0 W/m2
04:17 63.9 °F 50.5 °F 30 in Calm   3 mph 62% 0 in 0 W/m2
04:22 64.2 °F 50.9 °F 30 in SW 2 mph 3 mph 62% 0 in 0 W/m2
04:27 64.4 °F 50.7 °F 30 in Calm   2 mph 61% 0 in 0 W/m2
04:32 64.6 °F 50.9 °F 30 in Calm   3 mph 61% 0 in 0 W/m2
04:37 64.8 °F 51.1 °F 30 in WSW 0.9 mph 2 mph 61% 0 in 0 W/m2
04:42 64.8 °F 51.1 °F 30 in Calm   1 mph 61% 0 in 0 W/m2
04:47 64.8 °F 51.4 °F 30 in WSW 0.9 mph 2 mph 62% 0 in 0 W/m2
04:52 64.6 °F 51.3 °F 30 in SW 0.9 mph 2 mph 62% 0 in 0 W/m2
04:58 64.2 °F 51.4 °F 30 in Calm     63% 0 in 0 W/m2
05:03 64 °F 51.3 °F 30 in SW 0.9 mph 2 mph 63% 0 in 0 W/m2
05:08 63.9 °F 51.1 °F 30 in Calm   2 mph 63% 0 in 0 W/m2
05:13 64 °F 51.3 °F 30 in Calm   2 mph 63% 0 in 0 W/m2
05:18 64 °F 51.6 °F 30 in Calm   1 mph 64% 0 in 0 W/m2
05:23 64 °F 51.6 °F 30 in Calm   1 mph 64% 0 in 0 W/m2
05:28 63.9 °F 51.4 °F 30 in Calm   1 mph 64% 0 in 0 W/m2
05:33 63.9 °F 51.4 °F 30 in Calm   1 mph 64% 0 in 0 W/m2
05:38 63.7 °F 51.6 °F 30 in Calm   1 mph 65% 0 in 0 W/m2
05:43 63.5 °F 51.4 °F 30 in Calm     65% 0 in 0 W/m2
Juneau County Weather
Compliments of Weather Underground - 4 mb